Kitty — ZCXB — position and weather

sailwx.info

Track history (hours):
 
Tides and Currents Weather Stations Pressure Air Temp Water Temp Dewpoint Dewpoint Depression Visibility Wind Speed Wind Dir Waves Ship Positions

Kitty

Last reported at 2016-Jul-01 13:34 UTC. Time now 2016-Jul-01 13:38 UTC.
Position N 43°32' E 007°07'.

Length 38 m; draft 2.7 m.

Type: Pleasure craft. MMSI: 319423000.

Date/timePositionNaut miles runAvg speedWind from/ knotsBaromVisibWave heightAir tempDewpointWater temp
2016-Jul-01 13:34N 43°32' E 007°07'3 2.4
2016-Jul-01 12:31N 43°32' E 007°03'0 0.0
2016-Jul-01 11:31N 43°32' E 007°03'0 0.0
2016-Jul-01 10:22N 43°32' E 007°03'0 0.0
2016-Jul-01 09:28N 43°32' E 007°03'0 0.0
2016-Jul-01 08:28N 43°32' E 007°03'0 0.0
2016-Jul-01 07:28N 43°32' E 007°03'0 0.0
2016-Jul-01 06:25N 43°32' E 007°03'0 0.0
2016-Jul-01 05:28N 43°32' E 007°03'0 0.0
2016-Jul-01 04:28N 43°32' E 007°03'0 0.0
2016-Jul-01 03:31N 43°32' E 007°03'0 0.0
2016-Jul-01 02:31N 43°32' E 007°03'0 0.0
2016-Jul-01 01:31N 43°32' E 007°03'0 0.0
2016-Jul-01 00:31N 43°32' E 007°03'0 0.0
2016-Jun-30 23:31N 43°32' E 007°03'0 0.0
2016-Jun-30 22:31N 43°32' E 007°03'0 0.0
2016-Jun-30 21:31N 43°32' E 007°03'0 0.0
2016-Jun-30 20:28N 43°32' E 007°03'0 0.0
2016-Jun-30 19:22N 43°32' E 007°03'0 0.0
2016-Jun-30 18:25N 43°32' E 007°03'0 0.0
2016-Jun-30 17:28N 43°32' E 007°03'0 0.0
2016-Jun-30 16:25N 43°32' E 007°03'0 0.0
2016-Jun-30 15:28N 43°32' E 007°03'0 0.0
2016-Jun-30 14:28N 43°32' E 007°03'0 0.2
2016-Jun-30 13:33N 43°32' E 007°03'3 2.5
2016-Jun-30 12:30N 43°34' E 007°05'0 0.0
2016-Jun-30 11:30N 43°34' E 007°05'0 0.0
2016-Jun-30 10:30N 43°34' E 007°05'0 0.0
2016-Jun-30 09:30N 43°34' E 007°05'0 0.0
2016-Jun-30 08:30N 43°34' E 007°05'0 0.0
2016-Jun-30 07:30N 43°34' E 007°05'0 0.0
2016-Jun-30 06:30N 43°34' E 007°05'0 0.0
2016-Jun-30 05:24N 43°34' E 007°05'0 0.0
2016-Jun-30 04:30N 43°34' E 007°05'0 0.0
2016-Jun-30 03:18N 43°34' E 007°05'0 0.0
2016-Jun-30 02:30N 43°34' E 007°05'0 0.0
2016-Jun-30 01:24N 43°34' E 007°05'0 0.0
2016-Jun-30 00:24N 43°34' E 007°05'0 0.0
2016-Jun-29 23:30N 43°34' E 007°05'0 0.0
2016-Jun-29 22:30N 43°34' E 007°05'0 0.0
2016-Jun-29 21:30N 43°34' E 007°05'0 0.0
2016-Jun-29 20:24N 43°34' E 007°05'0 0.0
2016-Jun-29 19:30N 43°34' E 007°05'0 0.0
2016-Jun-29 18:33N 43°34' E 007°05'4 4.3
2016-Jun-29 17:33N 43°34' E 007°11'1010.0
2016-Jun-29 16:33N 43°41' E 007°21'1 1.0
2016-Jun-29 15:28N 43°42' E 007°21'0 0.0
2016-Jun-29 14:13N 43°42' E 007°21'0 0.0
2016-Jun-29 13:07N 43°42' E 007°21'0 0.0
2016-Jun-29 12:28N 43°42' E 007°21'0 0.0
2016-Jun-29 11:07N 43°42' E 007°21'0 0.0
2016-Jun-29 10:13N 43°42' E 007°21'1 0.9
2016-Jun-29 09:33N 43°41' E 007°21'1010.1
2016-Jun-29 08:33N 43°34' E 007°12'5 4.9
2016-Jun-29 07:33N 43°34' E 007°05'0 0.0
2016-Jun-29 06:21N 43°34' E 007°05'0 0.0
2016-Jun-29 05:33N 43°34' E 007°05'0 0.0
2016-Jun-29 04:33N 43°34' E 007°05'0 0.0
2016-Jun-29 03:33N 43°34' E 007°05'0 0.0
2016-Jun-29 02:33N 43°34' E 007°05'0 0.0
2016-Jun-29 01:33N 43°34' E 007°05'0 0.0
2016-Jun-29 00:33N 43°34' E 007°05'0 0.0
2016-Jun-28 23:27N 43°34' E 007°05'0 0.0
2016-Jun-28 22:33N 43°34' E 007°05'0 0.0
2016-Jun-28 21:33N 43°34' E 007°05'0 0.0
2016-Jun-28 20:33N 43°34' E 007°05'0 0.0
2016-Jun-28 19:33N 43°34' E 007°05'0 0.0
2016-Jun-28 18:33N 43°34' E 007°05'0 0.0
2016-Jun-28 17:33N 43°34' E 007°05'0 0.0
2016-Jun-28 16:33N 43°34' E 007°05'0 0.0
2016-Jun-28 15:33N 43°34' E 007°05'0 0.0
2016-Jun-28 14:33N 43°34' E 007°05'0 0.0
2016-Jun-28 13:33N 43°34' E 007°05'0 0.0
2016-Jun-28 12:33N 43°34' E 007°05'0 0.0
2016-Jun-28 11:15N 43°34' E 007°05'0 0.0
2016-Jun-28 10:15N 43°34' E 007°05'0 0.0
2016-Jun-28 09:33N 43°34' E 007°05'0 0.0
2016-Jun-28 08:27N 43°34' E 007°05'0 0.0
2016-Jun-28 07:27N 43°34' E 007°05'0 0.0
2016-Jun-28 06:33N 43°34' E 007°05'0 0.0
2016-Jun-28 04:33N 43°34' E 007°05'0 0.0
2016-Jun-28 03:21N 43°34' E 007°05'0 0.0
2016-Jun-28 02:33N 43°34' E 007°05'0 0.0
2016-Jun-28 01:33N 43°34' E 007°05'0 0.0
2016-Jun-28 00:21N 43°34' E 007°05'0 0.0
2016-Jun-27 23:33N 43°34' E 007°05'0 0.0
2016-Jun-27 22:33N 43°34' E 007°05'0 0.0
2016-Jun-27 21:33N 43°34' E 007°05'0 0.0
2016-Jun-27 20:27N 43°34' E 007°05'0 0.0
2016-Jun-27 19:33N 43°34' E 007°05'0 0.0
2016-Jun-27 18:33N 43°34' E 007°05'0 0.0
2016-Jun-27 17:33N 43°34' E 007°05'0 0.0
2016-Jun-27 16:33N 43°34' E 007°05'0 0.0
2016-Jun-27 15:33N 43°34' E 007°05'0 0.0
2016-Jun-27 14:33N 43°34' E 007°05'0 0.0
2016-Jun-27 13:33N 43°34' E 007°05'0 0.0
2016-Jun-27 12:15N 43°34' E 007°05'0 0.0
2016-Jun-27 11:33N 43°34' E 007°05'0 0.0
2016-Jun-27 10:33N 43°34' E 007°05'0 0.0
2016-Jun-27 09:27N 43°34' E 007°05'0 0.0
2016-Jun-27 08:33N 43°34' E 007°05'0 0.0
2016-Jun-27 07:33N 43°34' E 007°05'0 0.0
2016-Jun-27 06:09N 43°34' E 007°05'0 0.0
2016-Jun-27 05:33N 43°34' E 007°05'0 0.0
2016-Jun-27 04:33N 43°34' E 007°05'0 0.0
2016-Jun-27 03:27N 43°34' E 007°05'0 0.0
2016-Jun-27 02:33N 43°34' E 007°05'0 0.0
2016-Jun-27 01:33N 43°34' E 007°05'0 0.0
2016-Jun-27 00:33N 43°34' E 007°05'0 0.0
2016-Jun-26 23:33N 43°34' E 007°05'0 0.0
2016-Jun-26 22:33N 43°34' E 007°05'0 0.0
2016-Jun-26 21:33N 43°34' E 007°05'0 0.0
2016-Jun-26 20:33N 43°34' E 007°05'0 0.0
2016-Jun-26 19:27N 43°34' E 007°05'0 0.0
2016-Jun-26 18:33N 43°34' E 007°05'0 0.0
2016-Jun-26 17:33N 43°34' E 007°05'0 0.0
2016-Jun-26 16:15N 43°34' E 007°05'0 0.0
2016-Jun-26 15:33N 43°34' E 007°05'0 0.0
2016-Jun-26 14:33N 43°34' E 007°05'0 0.0
2016-Jun-26 13:33N 43°34' E 007°05'0 0.0
2016-Jun-26 12:33N 43°34' E 007°05'0 0.0
2016-Jun-26 11:27N 43°34' E 007°05'0 0.0
2016-Jun-26 10:33N 43°34' E 007°05'0 0.0
2016-Jun-26 09:33N 43°34' E 007°05'0 0.0
2016-Jun-26 07:33N 43°34' E 007°05'0 0.0
2016-Jun-26 06:33N 43°34' E 007°05'0 0.0
2016-Jun-26 05:27N 43°34' E 007°05'0 0.0
2016-Jun-26 04:33N 43°34' E 007°05'0 0.0
2016-Jun-26 03:27N 43°34' E 007°05'0 0.0
2016-Jun-26 02:33N 43°34' E 007°05'0 0.0
2016-Jun-26 01:33N 43°34' E 007°05'0 0.0
2016-Jun-26 00:33N 43°34' E 007°05'0 0.0
2016-Jun-25 23:33N 43°34' E 007°05'0 0.0
2016-Jun-25 22:33N 43°34' E 007°05'0 0.0
2016-Jun-25 21:27N 43°34' E 007°05'0 0.0
2016-Jun-25 20:21N 43°34' E 007°05'0 0.0
2016-Jun-25 19:33N 43°34' E 007°05'0 0.0
2016-Jun-25 18:33N 43°34' E 007°05'0 0.0
2016-Jun-25 17:33N 43°34' E 007°05'0 0.0
2016-Jun-25 16:03N 43°34' E 007°05'0 0.0
2016-Jun-25 15:33N 43°34' E 007°05'0 0.0
2016-Jun-25 14:27N 43°34' E 007°05'0 0.0
2016-Jun-25 13:33N 43°34' E 007°05'0 0.0
2016-Jun-25 12:33N 43°34' E 007°05'0 0.0
2016-Jun-25 11:33N 43°34' E 007°05'0 0.0
2016-Jun-25 10:33N 43°34' E 007°05'0 0.0
2016-Jun-25 09:33N 43°34' E 007°05'0 0.0
2016-Jun-25 08:33N 43°34' E 007°05'0 0.0
2016-Jun-25 07:33N 43°34' E 007°05'0 0.0
2016-Jun-25 06:33N 43°34' E 007°05'0 0.0
2016-Jun-25 05:33N 43°34' E 007°05'0 0.0
2016-Jun-25 04:27N 43°34' E 007°05'0 0.0
2016-Jun-25 03:33N 43°34' E 007°05'0 0.0
2016-Jun-25 02:33N 43°34' E 007°05'0 0.0
2016-Jun-25 01:33N 43°34' E 007°05'0 0.0
2016-Jun-25 00:27N 43°34' E 007°05'0 0.0
2016-Jun-24 23:27N 43°34' E 007°05'0 0.0
2016-Jun-24 22:33N 43°34' E 007°05'0 0.0
2016-Jun-24 21:33N 43°34' E 007°05'0 0.0
2016-Jun-24 20:33N 43°34' E 007°05'0 0.0
2016-Jun-24 19:33N 43°34' E 007°05'0 0.0
2016-Jun-24 18:21N 43°34' E 007°05'0 0.0
2016-Jun-24 17:33N 43°34' E 007°05'0 0.0
2016-Jun-24 16:33N 43°34' E 007°05'0 0.0
2016-Jun-24 15:27N 43°34' E 007°05'0 0.0
2016-Jun-24 14:33N 43°34' E 007°05'0 0.0
2016-Jun-24 13:33N 43°34' E 007°05'0 0.0
2016-Jun-24 12:33N 43°34' E 007°05'0 0.0
2016-Jun-24 11:33N 43°34' E 007°05'0 0.0
2016-Jun-24 10:33N 43°34' E 007°05'0 0.0
2016-Jun-24 09:33N 43°34' E 007°05'0 0.0
2016-Jun-24 08:33N 43°34' E 007°05'0 0.0
2016-Jun-24 07:33N 43°34' E 007°05'0 0.0
2016-Jun-24 04:33N 43°34' E 007°05'0 0.0
2016-Jun-24 03:33N 43°34' E 007°05'0 0.0
2016-Jun-24 02:21N 43°34' E 007°05'0 0.0
2016-Jun-24 01:33N 43°34' E 007°05'0 0.0
2016-Jun-24 00:33N 43°34' E 007°05'0 0.0
2016-Jun-23 23:33N 43°34' E 007°05'0 0.0
2016-Jun-23 22:33N 43°34' E 007°05'0 0.0
2016-Jun-23 21:27N 43°34' E 007°05'0 0.0
2016-Jun-23 20:27N 43°34' E 007°05'0 0.0
2016-Jun-23 19:27N 43°34' E 007°05'0 0.0
2016-Jun-23 18:33N 43°34' E 007°05'0 0.0
2016-Jun-23 17:33N 43°34' E 007°05'0 0.0
2016-Jun-23 16:27N 43°34' E 007°05'0 0.0
2016-Jun-23 15:33N 43°34' E 007°05'0 0.0
2016-Jun-23 14:33N 43°34' E 007°05'0 0.0
2016-Jun-23 13:33N 43°34' E 007°05'0 0.0
2016-Jun-23 12:33N 43°34' E 007°05'0 0.0
2016-Jun-23 11:33N 43°34' E 007°05'0 0.0
2016-Jun-23 10:27N 43°34' E 007°05'0 0.0
2016-Jun-23 09:33N 43°34' E 007°05'0 0.0
2016-Jun-23 08:33N 43°34' E 007°05'0 0.0
2016-Jun-23 07:33N 43°34' E 007°05'0 0.0
2016-Jun-23 05:27N 43°34' E 007°05'0 0.0
2016-Jun-23 04:33N 43°34' E 007°05'0 0.0
2016-Jun-23 03:33N 43°34' E 007°05'0 0.0
2016-Jun-23 02:33N 43°34' E 007°05'0 0.0
2016-Jun-23 01:27N 43°34' E 007°05'0 0.0
2016-Jun-23 00:33N 43°34' E 007°05'0 0.0
2016-Jun-22 23:33N 43°34' E 007°05'0 0.0
2016-Jun-22 22:33N 43°34' E 007°05'0 0.0
2016-Jun-22 21:33N 43°34' E 007°05'0 0.0
2016-Jun-22 20:33N 43°34' E 007°05'0 0.0
2016-Jun-22 19:33N 43°34' E 007°05'0 0.0
2016-Jun-22 18:33N 43°34' E 007°05'0 0.0
2016-Jun-22 17:33N 43°34' E 007°05'0 0.0
2016-Jun-22 16:33N 43°34' E 007°05'0 0.0
2016-Jun-22 15:33N 43°34' E 007°05'0 0.0
2016-Jun-22 14:15N 43°34' E 007°05'0 0.0
2016-Jun-22 13:33N 43°34' E 007°05'0 0.0
2016-Jun-22 12:27N 43°34' E 007°05'0 0.0
2016-Jun-22 11:33N 43°34' E 007°05'0 0.0
2016-Jun-22 10:09N 43°34' E 007°05'0 0.0
2016-Jun-22 09:33N 43°34' E 007°05'0 0.0
2016-Jun-22 08:33N 43°34' E 007°05'0 0.0
2016-Jun-22 07:33N 43°34' E 007°05'0 0.0
2016-Jun-22 06:33N 43°34' E 007°05'0 0.0
2016-Jun-22 05:33N 43°34' E 007°05'0 0.0
2016-Jun-22 04:33N 43°34' E 007°05'0 0.0
2016-Jun-22 03:33N 43°34' E 007°05'0 0.0
2016-Jun-22 02:33N 43°34' E 007°05'0 0.0
2016-Jun-22 01:33N 43°34' E 007°05'0 0.0
2016-Jun-22 00:33N 43°34' E 007°05'0 0.0
2016-Jun-21 23:33N 43°34' E 007°05'0 0.0
2016-Jun-21 22:33N 43°34' E 007°05'0 0.0
2016-Jun-21 21:33N 43°34' E 007°05'0 0.0
2016-Jun-21 20:33N 43°34' E 007°05'0 0.0
2016-Jun-21 19:27N 43°34' E 007°05'0 0.0
2016-Jun-21 18:33N 43°34' E 007°05'0 0.0
2016-Jun-21 17:33N 43°34' E 007°05'0 0.0
2016-Jun-21 16:33N 43°34' E 007°05'0 0.0
2016-Jun-21 15:33N 43°34' E 007°05'0 0.0
2016-Jun-21 14:33N 43°34' E 007°05'  
Track history (hours):
 
Tides and Currents Weather Stations Pressure Air Temp Water Temp Dewpoint Dewpoint Depression Visibility Wind Speed Wind Dir Waves Ship Positions

Kitty

Last reported at 2016-Jul-01 13:34 UTC. Time now 2016-Jul-01 13:38 UTC.
Position N 43°32' E 007°07'.

Length 38 m; draft 2.7 m.

Type: Pleasure craft. MMSI: 319423000.

Date/timePositionNaut miles runAvg speedWind from/ knotsBaromVisibWave heightAir tempDewpointWater temp
2016-Jul-01 13:34N 43°32' E 007°07'3 2.4
2016-Jul-01 12:31N 43°32' E 007°03'0 0.0
2016-Jul-01 11:31N 43°32' E 007°03'0 0.0
2016-Jul-01 10:22N 43°32' E 007°03'0 0.0
2016-Jul-01 09:28N 43°32' E 007°03'0 0.0
2016-Jul-01 08:28N 43°32' E 007°03'0 0.0
2016-Jul-01 07:28N 43°32' E 007°03'0 0.0
2016-Jul-01 06:25N 43°32' E 007°03'0 0.0
2016-Jul-01 05:28N 43°32' E 007°03'0 0.0
2016-Jul-01 04:28N 43°32' E 007°03'0 0.0
2016-Jul-01 03:31N 43°32' E 007°03'0 0.0
2016-Jul-01 02:31N 43°32' E 007°03'0 0.0
2016-Jul-01 01:31N 43°32' E 007°03'0 0.0
2016-Jul-01 00:31N 43°32' E 007°03'0 0.0
2016-Jun-30 23:31N 43°32' E 007°03'0 0.0
2016-Jun-30 22:31N 43°32' E 007°03'0 0.0
2016-Jun-30 21:31N 43°32' E 007°03'0 0.0
2016-Jun-30 20:28N 43°32' E 007°03'0 0.0
2016-Jun-30 19:22N 43°32' E 007°03'0 0.0
2016-Jun-30 18:25N 43°32' E 007°03'0 0.0
2016-Jun-30 17:28N 43°32' E 007°03'0 0.0
2016-Jun-30 16:25N 43°32' E 007°03'0 0.0
2016-Jun-30 15:28N 43°32' E 007°03'0 0.0
2016-Jun-30 14:28N 43°32' E 007°03'0 0.2
2016-Jun-30 13:33N 43°32' E 007°03'3 2.5
2016-Jun-30 12:30N 43°34' E 007°05'0 0.0
2016-Jun-30 11:30N 43°34' E 007°05'0 0.0
2016-Jun-30 10:30N 43°34' E 007°05'0 0.0
2016-Jun-30 09:30N 43°34' E 007°05'0 0.0
2016-Jun-30 08:30N 43°34' E 007°05'0 0.0
2016-Jun-30 07:30N 43°34' E 007°05'0 0.0
2016-Jun-30 06:30N 43°34' E 007°05'0 0.0
2016-Jun-30 05:24N 43°34' E 007°05'0 0.0
2016-Jun-30 04:30N 43°34' E 007°05'0 0.0
2016-Jun-30 03:18N 43°34' E 007°05'0 0.0
2016-Jun-30 02:30N 43°34' E 007°05'0 0.0
2016-Jun-30 01:24N 43°34' E 007°05'0 0.0
2016-Jun-30 00:24N 43°34' E 007°05'0 0.0
2016-Jun-29 23:30N 43°34' E 007°05'0 0.0
2016-Jun-29 22:30N 43°34' E 007°05'0 0.0
2016-Jun-29 21:30N 43°34' E 007°05'0 0.0
2016-Jun-29 20:24N 43°34' E 007°05'0 0.0
2016-Jun-29 19:30N 43°34' E 007°05'0 0.0
2016-Jun-29 18:33N 43°34' E 007°05'4 4.3
2016-Jun-29 17:33N 43°34' E 007°11'1010.0
2016-Jun-29 16:33N 43°41' E 007°21'1 1.0
2016-Jun-29 15:28N 43°42' E 007°21'0 0.0
2016-Jun-29 14:13N 43°42' E 007°21'0 0.0
2016-Jun-29 13:07N 43°42' E 007°21'0 0.0
2016-Jun-29 12:28N 43°42' E 007°21'0 0.0
2016-Jun-29 11:07N 43°42' E 007°21'0 0.0
2016-Jun-29 10:13N 43°42' E 007°21'1 0.9
2016-Jun-29 09:33N 43°41' E 007°21'1010.1
2016-Jun-29 08:33N 43°34' E 007°12'5 4.9
2016-Jun-29 07:33N 43°34' E 007°05'0 0.0
2016-Jun-29 06:21N 43°34' E 007°05'0 0.0
2016-Jun-29 05:33N 43°34' E 007°05'0 0.0
2016-Jun-29 04:33N 43°34' E 007°05'0 0.0
2016-Jun-29 03:33N 43°34' E 007°05'0 0.0
2016-Jun-29 02:33N 43°34' E 007°05'0 0.0
2016-Jun-29 01:33N 43°34' E 007°05'0 0.0
2016-Jun-29 00:33N 43°34' E 007°05'0 0.0
2016-Jun-28 23:27N 43°34' E 007°05'0 0.0
2016-Jun-28 22:33N 43°34' E 007°05'0 0.0
2016-Jun-28 21:33N 43°34' E 007°05'0 0.0
2016-Jun-28 20:33N 43°34' E 007°05'0 0.0
2016-Jun-28 19:33N 43°34' E 007°05'0 0.0
2016-Jun-28 18:33N 43°34' E 007°05'0 0.0
2016-Jun-28 17:33N 43°34' E 007°05'0 0.0
2016-Jun-28 16:33N 43°34' E 007°05'0 0.0
2016-Jun-28 15:33N 43°34' E 007°05'0 0.0
2016-Jun-28 14:33N 43°34' E 007°05'0 0.0
2016-Jun-28 13:33N 43°34' E 007°05'0 0.0
2016-Jun-28 12:33N 43°34' E 007°05'0 0.0
2016-Jun-28 11:15N 43°34' E 007°05'0 0.0
2016-Jun-28 10:15N 43°34' E 007°05'0 0.0
2016-Jun-28 09:33N 43°34' E 007°05'0 0.0
2016-Jun-28 08:27N 43°34' E 007°05'0 0.0
2016-Jun-28 07:27N 43°34' E 007°05'0 0.0
2016-Jun-28 06:33N 43°34' E 007°05'0 0.0
2016-Jun-28 04:33N 43°34' E 007°05'0 0.0
2016-Jun-28 03:21N 43°34' E 007°05'0 0.0
2016-Jun-28 02:33N 43°34' E 007°05'0 0.0
2016-Jun-28 01:33N 43°34' E 007°05'0 0.0
2016-Jun-28 00:21N 43°34' E 007°05'0 0.0
2016-Jun-27 23:33N 43°34' E 007°05'0 0.0
2016-Jun-27 22:33N 43°34' E 007°05'0 0.0
2016-Jun-27 21:33N 43°34' E 007°05'0 0.0
2016-Jun-27 20:27N 43°34' E 007°05'0 0.0
2016-Jun-27 19:33N 43°34' E 007°05'0 0.0
2016-Jun-27 18:33N 43°34' E 007°05'0 0.0
2016-Jun-27 17:33N 43°34' E 007°05'0 0.0
2016-Jun-27 16:33N 43°34' E 007°05'0 0.0
2016-Jun-27 15:33N 43°34' E 007°05'0 0.0
2016-Jun-27 14:33N 43°34' E 007°05'0 0.0
2016-Jun-27 13:33N 43°34' E 007°05'0 0.0
2016-Jun-27 12:15N 43°34' E 007°05'0 0.0
2016-Jun-27 11:33N 43°34' E 007°05'0 0.0
2016-Jun-27 10:33N 43°34' E 007°05'0 0.0
2016-Jun-27 09:27N 43°34' E 007°05'0 0.0
2016-Jun-27 08:33N 43°34' E 007°05'0 0.0
2016-Jun-27 07:33N 43°34' E 007°05'0 0.0
2016-Jun-27 06:09N 43°34' E 007°05'0 0.0
2016-Jun-27 05:33N 43°34' E 007°05'0 0.0
2016-Jun-27 04:33N 43°34' E 007°05'0 0.0
2016-Jun-27 03:27N 43°34' E 007°05'0 0.0
2016-Jun-27 02:33N 43°34' E 007°05'0 0.0
2016-Jun-27 01:33N 43°34' E 007°05'0 0.0
2016-Jun-27 00:33N 43°34' E 007°05'0 0.0
2016-Jun-26 23:33N 43°34' E 007°05'0 0.0
2016-Jun-26 22:33N 43°34' E 007°05'0 0.0
2016-Jun-26 21:33N 43°34' E 007°05'0 0.0
2016-Jun-26 20:33N 43°34' E 007°05'0 0.0
2016-Jun-26 19:27N 43°34' E 007°05'0 0.0
2016-Jun-26 18:33N 43°34' E 007°05'0 0.0
2016-Jun-26 17:33N 43°34' E 007°05'0 0.0
2016-Jun-26 16:15N 43°34' E 007°05'0 0.0
2016-Jun-26 15:33N 43°34' E 007°05'0 0.0
2016-Jun-26 14:33N 43°34' E 007°05'0 0.0
2016-Jun-26 13:33N 43°34' E 007°05'0 0.0
2016-Jun-26 12:33N 43°34' E 007°05'0 0.0
2016-Jun-26 11:27N 43°34' E 007°05'0 0.0
2016-Jun-26 10:33N 43°34' E 007°05'0 0.0
2016-Jun-26 09:33N 43°34' E 007°05'0 0.0
2016-Jun-26 07:33N 43°34' E 007°05'0 0.0
2016-Jun-26 06:33N 43°34' E 007°05'0 0.0
2016-Jun-26 05:27N 43°34' E 007°05'0 0.0
2016-Jun-26 04:33N 43°34' E 007°05'0 0.0
2016-Jun-26 03:27N 43°34' E 007°05'0 0.0
2016-Jun-26 02:33N 43°34' E 007°05'0 0.0
2016-Jun-26 01:33N 43°34' E 007°05'0 0.0
2016-Jun-26 00:33N 43°34' E 007°05'0 0.0
2016-Jun-25 23:33N 43°34' E 007°05'0 0.0
2016-Jun-25 22:33N 43°34' E 007°05'0 0.0
2016-Jun-25 21:27N 43°34' E 007°05'0 0.0
2016-Jun-25 20:21N 43°34' E 007°05'0 0.0
2016-Jun-25 19:33N 43°34' E 007°05'0 0.0
2016-Jun-25 18:33N 43°34' E 007°05'0 0.0
2016-Jun-25 17:33N 43°34' E 007°05'0 0.0
2016-Jun-25 16:03N 43°34' E 007°05'0 0.0
2016-Jun-25 15:33N 43°34' E 007°05'0 0.0
2016-Jun-25 14:27N 43°34' E 007°05'0 0.0
2016-Jun-25 13:33N 43°34' E 007°05'0 0.0
2016-Jun-25 12:33N 43°34' E 007°05'0 0.0
2016-Jun-25 11:33N 43°34' E 007°05'0 0.0
2016-Jun-25 10:33N 43°34' E 007°05'0 0.0
2016-Jun-25 09:33N 43°34' E 007°05'0 0.0
2016-Jun-25 08:33N 43°34' E 007°05'0 0.0
2016-Jun-25 07:33N 43°34' E 007°05'0 0.0
2016-Jun-25 06:33N 43°34' E 007°05'0 0.0
2016-Jun-25 05:33N 43°34' E 007°05'0 0.0
2016-Jun-25 04:27N 43°34' E 007°05'0 0.0
2016-Jun-25 03:33N 43°34' E 007°05'0 0.0
2016-Jun-25 02:33N 43°34' E 007°05'0 0.0
2016-Jun-25 01:33N 43°34' E 007°05'0 0.0
2016-Jun-25 00:27N 43°34' E 007°05'0 0.0
2016-Jun-24 23:27N 43°34' E 007°05'0 0.0
2016-Jun-24 22:33N 43°34' E 007°05'0 0.0
2016-Jun-24 21:33N 43°34' E 007°05'0 0.0
2016-Jun-24 20:33N 43°34' E 007°05'0 0.0
2016-Jun-24 19:33N 43°34' E 007°05'0 0.0
2016-Jun-24 18:21N 43°34' E 007°05'0 0.0
2016-Jun-24 17:33N 43°34' E 007°05'0 0.0
2016-Jun-24 16:33N 43°34' E 007°05'0 0.0
2016-Jun-24 15:27N 43°34' E 007°05'0 0.0
2016-Jun-24 14:33N 43°34' E 007°05'0 0.0
2016-Jun-24 13:33N 43°34' E 007°05'0 0.0
2016-Jun-24 12:33N 43°34' E 007°05'0 0.0
2016-Jun-24 11:33N 43°34' E 007°05'0 0.0
2016-Jun-24 10:33N 43°34' E 007°05'0 0.0
2016-Jun-24 09:33N 43°34' E 007°05'0 0.0
2016-Jun-24 08:33N 43°34' E 007°05'0 0.0
2016-Jun-24 07:33N 43°34' E 007°05'0 0.0
2016-Jun-24 04:33N 43°34' E 007°05'0 0.0
2016-Jun-24 03:33N 43°34' E 007°05'0 0.0
2016-Jun-24 02:21N 43°34' E 007°05'0 0.0
2016-Jun-24 01:33N 43°34' E 007°05'0 0.0
2016-Jun-24 00:33N 43°34' E 007°05'0 0.0
2016-Jun-23 23:33N 43°34' E 007°05'0 0.0
2016-Jun-23 22:33N 43°34' E 007°05'0 0.0
2016-Jun-23 21:27N 43°34' E 007°05'0 0.0
2016-Jun-23 20:27N 43°34' E 007°05'0 0.0
2016-Jun-23 19:27N 43°34' E 007°05'0 0.0
2016-Jun-23 18:33N 43°34' E 007°05'0 0.0
2016-Jun-23 17:33N 43°34' E 007°05'0 0.0
2016-Jun-23 16:27N 43°34' E 007°05'0 0.0
2016-Jun-23 15:33N 43°34' E 007°05'0 0.0
2016-Jun-23 14:33N 43°34' E 007°05'0 0.0
2016-Jun-23 13:33N 43°34' E 007°05'0 0.0
2016-Jun-23 12:33N 43°34' E 007°05'0 0.0
2016-Jun-23 11:33N 43°34' E 007°05'0 0.0
2016-Jun-23 10:27N 43°34' E 007°05'0 0.0
2016-Jun-23 09:33N 43°34' E 007°05'0 0.0
2016-Jun-23 08:33N 43°34' E 007°05'0 0.0
2016-Jun-23 07:33N 43°34' E 007°05'0 0.0
2016-Jun-23 05:27N 43°34' E 007°05'0 0.0
2016-Jun-23 04:33N 43°34' E 007°05'0 0.0
2016-Jun-23 03:33N 43°34' E 007°05'0 0.0
2016-Jun-23 02:33N 43°34' E 007°05'0 0.0
2016-Jun-23 01:27N 43°34' E 007°05'0 0.0
2016-Jun-23 00:33N 43°34' E 007°05'0 0.0
2016-Jun-22 23:33N 43°34' E 007°05'0 0.0
2016-Jun-22 22:33N 43°34' E 007°05'0 0.0
2016-Jun-22 21:33N 43°34' E 007°05'0 0.0
2016-Jun-22 20:33N 43°34' E 007°05'0 0.0
2016-Jun-22 19:33N 43°34' E 007°05'0 0.0
2016-Jun-22 18:33N 43°34' E 007°05'0 0.0
2016-Jun-22 17:33N 43°34' E 007°05'0 0.0
2016-Jun-22 16:33N 43°34' E 007°05'0 0.0
2016-Jun-22 15:33N 43°34' E 007°05'0 0.0
2016-Jun-22 14:15N 43°34' E 007°05'0 0.0
2016-Jun-22 13:33N 43°34' E 007°05'0 0.0
2016-Jun-22 12:27N 43°34' E 007°05'0 0.0
2016-Jun-22 11:33N 43°34' E 007°05'0 0.0
2016-Jun-22 10:09N 43°34' E 007°05'0 0.0
2016-Jun-22 09:33N 43°34' E 007°05'0 0.0
2016-Jun-22 08:33N 43°34' E 007°05'0 0.0
2016-Jun-22 07:33N 43°34' E 007°05'0 0.0
2016-Jun-22 06:33N 43°34' E 007°05'0 0.0
2016-Jun-22 05:33N 43°34' E 007°05'0 0.0
2016-Jun-22 04:33N 43°34' E 007°05'0 0.0
2016-Jun-22 03:33N 43°34' E 007°05'0 0.0
2016-Jun-22 02:33N 43°34' E 007°05'0 0.0
2016-Jun-22 01:33N 43°34' E 007°05'0 0.0
2016-Jun-22 00:33N 43°34' E 007°05'0 0.0
2016-Jun-21 23:33N 43°34' E 007°05'0 0.0
2016-Jun-21 22:33N 43°34' E 007°05'0 0.0
2016-Jun-21 21:33N 43°34' E 007°05'0 0.0
2016-Jun-21 20:33N 43°34' E 007°05'0 0.0
2016-Jun-21 19:27N 43°34' E 007°05'0 0.0
2016-Jun-21 18:33N 43°34' E 007°05'0 0.0
2016-Jun-21 17:33N 43°34' E 007°05'0 0.0
2016-Jun-21 16:33N 43°34' E 007°05'0 0.0
2016-Jun-21 15:33N 43°34' E 007°05'0 0.0
2016-Jun-21 14:33N 43°34' E 007°05'  

Dump ship's entire track history